sensor_id;sensor_type;location;lat;lon;timestamp;P1;durP1;ratioP1;P2;durP2;ratioP2
78664;SDS011;67981;51.022;-2.870;2023-04-15T00:01:19;5.95;;;3.53;;
78664;SDS011;67981;51.022;-2.870;2023-04-15T00:03:45;9.60;;;4.03;;
78664;SDS011;67981;51.022;-2.870;2023-04-15T00:06:11;10.23;;;3.47;;
78664;SDS011;67981;51.022;-2.870;2023-04-15T00:08:37;6.28;;;3.30;;
78664;SDS011;67981;51.022;-2.870;2023-04-15T00:11:03;7.35;;;3.33;;
78664;SDS011;67981;51.022;-2.870;2023-04-15T00:13:30;8.25;;;3.28;;
78664;SDS011;67981;51.022;-2.870;2023-04-15T00:15:58;8.13;;;3.00;;
78664;SDS011;67981;51.022;-2.870;2023-04-15T00:18:23;7.95;;;3.85;;
78664;SDS011;67981;51.022;-2.870;2023-04-15T00:20:49;7.38;;;2.45;;
78664;SDS011;67981;51.022;-2.870;2023-04-15T00:23:14;8.03;;;2.43;;
78664;SDS011;67981;51.022;-2.870;2023-04-15T00:25:39;8.55;;;2.78;;
78664;SDS011;67981;51.022;-2.870;2023-04-15T00:28:05;4.83;;;2.57;;
78664;SDS011;67981;51.022;-2.870;2023-04-15T00:30:30;6.73;;;2.50;;
78664;SDS011;67981;51.022;-2.870;2023-04-15T00:32:55;8.68;;;2.50;;
78664;SDS011;67981;51.022;-2.870;2023-04-15T00:35:21;3.87;;;2.10;;
78664;SDS011;67981;51.022;-2.870;2023-04-15T00:37:47;8.32;;;3.20;;
78664;SDS011;67981;51.022;-2.870;2023-04-15T00:40:13;4.53;;;2.15;;
78664;SDS011;67981;51.022;-2.870;2023-04-15T00:42:42;6.43;;;2.50;;
78664;SDS011;67981;51.022;-2.870;2023-04-15T00:45:09;6.22;;;2.35;;
78664;SDS011;67981;51.022;-2.870;2023-04-15T00:47:35;7.70;;;2.83;;
78664;SDS011;67981;51.022;-2.870;2023-04-15T00:50:01;9.18;;;2.83;;
78664;SDS011;67981;51.022;-2.870;2023-04-15T00:52:27;6.90;;;2.25;;
78664;SDS011;67981;51.022;-2.870;2023-04-15T00:54:52;5.30;;;2.43;;
78664;SDS011;67981;51.022;-2.870;2023-04-15T00:57:19;6.47;;;2.28;;
78664;SDS011;67981;51.022;-2.870;2023-04-15T00:59:45;5.63;;;2.38;;
78664;SDS011;67981;51.022;-2.870;2023-04-15T01:02:11;3.60;;;2.22;;
78664;SDS011;67981;51.022;-2.870;2023-04-15T01:04:36;10.75;;;3.22;;
78664;SDS011;67981;51.022;-2.870;2023-04-15T01:07:02;5.78;;;2.30;;
78664;SDS011;67981;51.022;-2.870;2023-04-15T01:09:27;11.10;;;2.63;;
78664;SDS011;67981;51.022;-2.870;2023-04-15T01:11:53;6.85;;;1.90;;
78664;SDS011;67981;51.022;-2.870;2023-04-15T01:14:18;5.90;;;2.33;;
78664;SDS011;67981;51.022;-2.870;2023-04-15T01:16:45;3.95;;;2.30;;
78664;SDS011;67981;51.022;-2.870;2023-04-15T01:19:10;4.82;;;2.40;;
78664;SDS011;67981;51.022;-2.870;2023-04-15T01:21:40;6.85;;;2.72;;
78664;SDS011;67981;51.022;-2.870;2023-04-15T01:24:07;5.07;;;2.47;;
78664;SDS011;67981;51.022;-2.870;2023-04-15T01:26:35;4.18;;;2.13;;
78664;SDS011;67981;51.022;-2.870;2023-04-15T01:29:03;6.20;;;2.53;;
78664;SDS011;67981;51.022;-2.870;2023-04-15T01:31:29;7.15;;;2.05;;
78664;SDS011;67981;51.022;-2.870;2023-04-15T01:33:54;11.32;;;2.85;;
78664;SDS011;67981;51.022;-2.870;2023-04-15T01:36:20;6.95;;;2.78;;
78664;SDS011;67981;51.022;-2.870;2023-04-15T01:38:45;5.53;;;2.40;;
78664;SDS011;67981;51.022;-2.870;2023-04-15T01:41:12;3.83;;;1.73;;
78664;SDS011;67981;51.022;-2.870;2023-04-15T01:43:37;3.75;;;1.80;;
78664;SDS011;67981;51.022;-2.870;2023-04-15T01:46:03;6.45;;;2.08;;
78664;SDS011;67981;51.022;-2.870;2023-04-15T01:48:29;3.20;;;1.58;;
78664;SDS011;67981;51.022;-2.870;2023-04-15T01:50:54;6.22;;;2.40;;
78664;SDS011;67981;51.022;-2.870;2023-04-15T01:53:22;7.80;;;2.35;;
78664;SDS011;67981;51.022;-2.870;2023-04-15T01:55:47;13.20;;;2.30;;
78664;SDS011;67981;51.022;-2.870;2023-04-15T01:58:13;5.28;;;2.22;;
78664;SDS011;67981;51.022;-2.870;2023-04-15T02:00:39;7.55;;;2.58;;
78664;SDS011;67981;51.022;-2.870;2023-04-15T02:03:04;5.03;;;2.08;;
78664;SDS011;67981;51.022;-2.870;2023-04-15T02:05:30;8.52;;;2.35;;
78664;SDS011;67981;51.022;-2.870;2023-04-15T02:07:56;5.90;;;1.95;;
78664;SDS011;67981;51.022;-2.870;2023-04-15T02:10:21;6.55;;;2.50;;
78664;SDS011;67981;51.022;-2.870;2023-04-15T02:12:47;4.65;;;2.05;;
78664;SDS011;67981;51.022;-2.870;2023-04-15T02:15:12;7.35;;;2.83;;
78664;SDS011;67981;51.022;-2.870;2023-04-15T02:17:38;7.65;;;2.45;;
78664;SDS011;67981;51.022;-2.870;2023-04-15T02:20:04;6.68;;;2.47;;
78664;SDS011;67981;51.022;-2.870;2023-04-15T02:22:30;4.93;;;2.45;;
78664;SDS011;67981;51.022;-2.870;2023-04-15T02:24:55;4.55;;;2.60;;
78664;SDS011;67981;51.022;-2.870;2023-04-15T02:27:21;8.60;;;3.25;;
78664;SDS011;67981;51.022;-2.870;2023-04-15T02:29:46;9.00;;;2.70;;
78664;SDS011;67981;51.022;-2.870;2023-04-15T02:32:12;10.00;;;4.00;;
78664;SDS011;67981;51.022;-2.870;2023-04-15T02:34:38;5.70;;;2.92;;
78664;SDS011;67981;51.022;-2.870;2023-04-15T02:37:06;6.18;;;2.90;;
78664;SDS011;67981;51.022;-2.870;2023-04-15T02:39:35;10.57;;;2.42;;
78664;SDS011;67981;51.022;-2.870;2023-04-15T02:42:01;6.55;;;2.95;;
78664;SDS011;67981;51.022;-2.870;2023-04-15T02:44:27;5.85;;;2.92;;
78664;SDS011;67981;51.022;-2.870;2023-04-15T02:46:52;8.13;;;3.50;;
78664;SDS011;67981;51.022;-2.870;2023-04-15T02:49:21;6.50;;;2.53;;
78664;SDS011;67981;51.022;-2.870;2023-04-15T02:51:47;12.52;;;3.80;;
78664;SDS011;67981;51.022;-2.870;2023-04-15T02:54:17;8.18;;;3.45;;
78664;SDS011;67981;51.022;-2.870;2023-04-15T02:56:43;6.75;;;2.92;;
78664;SDS011;67981;51.022;-2.870;2023-04-15T02:59:09;6.72;;;2.72;;
78664;SDS011;67981;51.022;-2.870;2023-04-15T03:01:36;6.45;;;3.03;;
78664;SDS011;67981;51.022;-2.870;2023-04-15T03:04:01;6.70;;;2.77;;
78664;SDS011;67981;51.022;-2.870;2023-04-15T03:06:26;6.77;;;3.30;;
78664;SDS011;67981;51.022;-2.870;2023-04-15T03:08:52;5.10;;;3.08;;
78664;SDS011;67981;51.022;-2.870;2023-04-15T03:11:18;6.20;;;3.03;;
78664;SDS011;67981;51.022;-2.870;2023-04-15T03:13:44;9.70;;;3.05;;
78664;SDS011;67981;51.022;-2.870;2023-04-15T03:16:09;8.13;;;3.72;;
78664;SDS011;67981;51.022;-2.870;2023-04-15T03:18:35;9.43;;;2.80;;
78664;SDS011;67981;51.022;-2.870;2023-04-15T03:21:00;6.10;;;3.38;;
78664;SDS011;67981;51.022;-2.870;2023-04-15T03:23:26;8.77;;;3.00;;
78664;SDS011;67981;51.022;-2.870;2023-04-15T03:25:52;7.10;;;2.40;;
78664;SDS011;67981;51.022;-2.870;2023-04-15T03:28:20;11.60;;;3.40;;
78664;SDS011;67981;51.022;-2.870;2023-04-15T03:30:45;7.75;;;3.15;;
78664;SDS011;67981;51.022;-2.870;2023-04-15T03:33:10;5.88;;;2.80;;
78664;SDS011;67981;51.022;-2.870;2023-04-15T03:35:36;8.13;;;3.20;;
78664;SDS011;67981;51.022;-2.870;2023-04-15T03:38:01;6.95;;;3.13;;
78664;SDS011;67981;51.022;-2.870;2023-04-15T03:40:27;9.18;;;4.47;;
78664;SDS011;67981;51.022;-2.870;2023-04-15T03:42:52;7.57;;;2.92;;
78664;SDS011;67981;51.022;-2.870;2023-04-15T03:45:18;4.35;;;3.08;;
78664;SDS011;67981;51.022;-2.870;2023-04-15T03:47:43;8.40;;;3.28;;
78664;SDS011;67981;51.022;-2.870;2023-04-15T03:50:08;7.15;;;3.30;;
78664;SDS011;67981;51.022;-2.870;2023-04-15T03:52:35;8.77;;;2.75;;
78664;SDS011;67981;51.022;-2.870;2023-04-15T03:55:00;6.80;;;2.70;;
78664;SDS011;67981;51.022;-2.870;2023-04-15T03:57:26;6.75;;;3.05;;
78664;SDS011;67981;51.022;-2.870;2023-04-15T03:59:51;10.82;;;4.05;;
78664;SDS011;67981;51.022;-2.870;2023-04-15T04:02:17;9.23;;;3.40;;
78664;SDS011;67981;51.022;-2.870;2023-04-15T04:04:42;8.03;;;3.37;;
78664;SDS011;67981;51.022;-2.870;2023-04-15T04:07:08;8.48;;;3.08;;
78664;SDS011;67981;51.022;-2.870;2023-04-15T04:09:39;8.10;;;3.28;;
78664;SDS011;67981;51.022;-2.870;2023-04-15T04:12:06;8.93;;;2.80;;
78664;SDS011;67981;51.022;-2.870;2023-04-15T04:14:31;9.38;;;3.15;;
78664;SDS011;67981;51.022;-2.870;2023-04-15T04:16:57;7.03;;;3.05;;
78664;SDS011;67981;51.022;-2.870;2023-04-15T04:19:22;6.20;;;2.95;;
78664;SDS011;67981;51.022;-2.870;2023-04-15T04:21:47;7.80;;;3.08;;
78664;SDS011;67981;51.022;-2.870;2023-04-15T04:24:13;7.83;;;3.40;;
78664;SDS011;67981;51.022;-2.870;2023-04-15T04:26:38;7.70;;;3.27;;
78664;SDS011;67981;51.022;-2.870;2023-04-15T04:29:03;12.67;;;3.03;;
78664;SDS011;67981;51.022;-2.870;2023-04-15T04:31:29;6.20;;;2.80;;
78664;SDS011;67981;51.022;-2.870;2023-04-15T04:33:54;10.32;;;3.15;;
78664;SDS011;67981;51.022;-2.870;2023-04-15T04:36:19;7.35;;;3.05;;
78664;SDS011;67981;51.022;-2.870;2023-04-15T04:38:45;6.93;;;3.38;;
78664;SDS011;67981;51.022;-2.870;2023-04-15T04:41:10;6.88;;;3.30;;
78664;SDS011;67981;51.022;-2.870;2023-04-15T04:43:36;7.13;;;2.70;;
78664;SDS011;67981;51.022;-2.870;2023-04-15T04:46:01;6.07;;;3.38;;
78664;SDS011;67981;51.022;-2.870;2023-04-15T04:48:26;5.53;;;3.43;;
78664;SDS011;67981;51.022;-2.870;2023-04-15T04:50:52;8.00;;;2.90;;
78664;SDS011;67981;51.022;-2.870;2023-04-15T04:53:17;9.05;;;2.97;;
78664;SDS011;67981;51.022;-2.870;2023-04-15T04:55:43;5.18;;;2.72;;
78664;SDS011;67981;51.022;-2.870;2023-04-15T04:58:08;11.87;;;3.03;;
78664;SDS011;67981;51.022;-2.870;2023-04-15T05:00:33;10.93;;;3.00;;
78664;SDS011;67981;51.022;-2.870;2023-04-15T05:02:59;9.25;;;3.20;;
78664;SDS011;67981;51.022;-2.870;2023-04-15T05:05:24;4.43;;;2.47;;
78664;SDS011;67981;51.022;-2.870;2023-04-15T05:07:50;7.13;;;3.30;;
78664;SDS011;67981;51.022;-2.870;2023-04-15T05:10:15;5.20;;;2.60;;
78664;SDS011;67981;51.022;-2.870;2023-04-15T05:12:42;5.10;;;2.60;;
78664;SDS011;67981;51.022;-2.870;2023-04-15T05:15:07;11.18;;;2.72;;
78664;SDS011;67981;51.022;-2.870;2023-04-15T05:17:34;5.32;;;2.22;;
78664;SDS011;67981;51.022;-2.870;2023-04-15T05:19:59;6.78;;;2.65;;
78664;SDS011;67981;51.022;-2.870;2023-04-15T05:22:25;7.97;;;2.90;;
78664;SDS011;67981;51.022;-2.870;2023-04-15T05:24:51;6.47;;;2.70;;
78664;SDS011;67981;51.022;-2.870;2023-04-15T05:27:16;5.85;;;2.05;;
78664;SDS011;67981;51.022;-2.870;2023-04-15T05:29:43;5.82;;;2.20;;
78664;SDS011;67981;51.022;-2.870;2023-04-15T05:32:08;5.50;;;2.63;;
78664;SDS011;67981;51.022;-2.870;2023-04-15T05:34:34;8.07;;;2.70;;
78664;SDS011;67981;51.022;-2.870;2023-04-15T05:37:00;7.65;;;2.92;;
78664;SDS011;67981;51.022;-2.870;2023-04-15T05:39:26;9.65;;;3.10;;
78664;SDS011;67981;51.022;-2.870;2023-04-15T05:41:51;7.30;;;2.95;;
78664;SDS011;67981;51.022;-2.870;2023-04-15T05:44:17;6.90;;;2.88;;
78664;SDS011;67981;51.022;-2.870;2023-04-15T05:46:43;6.15;;;2.72;;
78664;SDS011;67981;51.022;-2.870;2023-04-15T05:49:08;8.98;;;2.67;;
78664;SDS011;67981;51.022;-2.870;2023-04-15T05:51:33;5.60;;;2.13;;
78664;SDS011;67981;51.022;-2.870;2023-04-15T05:53:59;8.00;;;2.85;;
78664;SDS011;67981;51.022;-2.870;2023-04-15T05:56:25;5.57;;;2.65;;
78664;SDS011;67981;51.022;-2.870;2023-04-15T05:58:51;17.13;;;3.28;;
78664;SDS011;67981;51.022;-2.870;2023-04-15T06:01:16;8.77;;;3.38;;
78664;SDS011;67981;51.022;-2.870;2023-04-15T06:03:42;4.45;;;2.78;;
78664;SDS011;67981;51.022;-2.870;2023-04-15T06:06:07;6.65;;;3.38;;
78664;SDS011;67981;51.022;-2.870;2023-04-15T06:08:33;7.25;;;2.83;;
78664;SDS011;67981;51.022;-2.870;2023-04-15T06:10:59;5.87;;;3.13;;
78664;SDS011;67981;51.022;-2.870;2023-04-15T06:13:24;5.32;;;2.45;;
78664;SDS011;67981;51.022;-2.870;2023-04-15T06:15:50;5.85;;;2.60;;
78664;SDS011;67981;51.022;-2.870;2023-04-15T06:18:15;6.82;;;3.35;;
78664;SDS011;67981;51.022;-2.870;2023-04-15T06:20:40;4.67;;;2.77;;
78664;SDS011;67981;51.022;-2.870;2023-04-15T06:23:06;6.35;;;3.28;;
78664;SDS011;67981;51.022;-2.870;2023-04-15T06:25:31;8.15;;;2.90;;
78664;SDS011;67981;51.022;-2.870;2023-04-15T06:27:56;8.80;;;3.00;;
78664;SDS011;67981;51.022;-2.870;2023-04-15T06:30:22;7.97;;;3.83;;
78664;SDS011;67981;51.022;-2.870;2023-04-15T06:32:47;5.43;;;2.50;;
78664;SDS011;67981;51.022;-2.870;2023-04-15T06:35:12;5.57;;;2.95;;
78664;SDS011;67981;51.022;-2.870;2023-04-15T06:37:38;6.72;;;2.60;;
78664;SDS011;67981;51.022;-2.870;2023-04-15T06:40:04;9.90;;;2.47;;
78664;SDS011;67981;51.022;-2.870;2023-04-15T06:42:30;5.45;;;2.22;;
78664;SDS011;67981;51.022;-2.870;2023-04-15T06:44:55;7.35;;;2.53;;
78664;SDS011;67981;51.022;-2.870;2023-04-15T06:47:20;4.00;;;2.15;;
78664;SDS011;67981;51.022;-2.870;2023-04-15T06:49:46;6.70;;;2.20;;
78664;SDS011;67981;51.022;-2.870;2023-04-15T06:52:11;4.10;;;2.03;;
78664;SDS011;67981;51.022;-2.870;2023-04-15T06:54:37;8.70;;;2.50;;
78664;SDS011;67981;51.022;-2.870;2023-04-15T06:57:02;4.63;;;2.40;;
78664;SDS011;67981;51.022;-2.870;2023-04-15T06:59:28;6.68;;;2.42;;
78664;SDS011;67981;51.022;-2.870;2023-04-15T07:01:53;7.50;;;3.22;;
78664;SDS011;67981;51.022;-2.870;2023-04-15T07:04:19;5.97;;;2.60;;
78664;SDS011;67981;51.022;-2.870;2023-04-15T07:06:44;4.47;;;2.07;;
78664;SDS011;67981;51.022;-2.870;2023-04-15T07:09:11;7.67;;;3.10;;
78664;SDS011;67981;51.022;-2.870;2023-04-15T07:11:36;4.00;;;2.03;;
78664;SDS011;67981;51.022;-2.870;2023-04-15T07:14:01;4.40;;;2.72;;
78664;SDS011;67981;51.022;-2.870;2023-04-15T07:16:27;2.78;;;1.88;;
78664;SDS011;67981;51.022;-2.870;2023-04-15T07:18:54;3.60;;;1.88;;
78664;SDS011;67981;51.022;-2.870;2023-04-15T07:21:20;5.75;;;2.10;;
78664;SDS011;67981;51.022;-2.870;2023-04-15T07:23:45;3.38;;;1.40;;
78664;SDS011;67981;51.022;-2.870;2023-04-15T07:26:11;9.15;;;2.08;;
78664;SDS011;67981;51.022;-2.870;2023-04-15T07:28:36;7.87;;;2.43;;
78664;SDS011;67981;51.022;-2.870;2023-04-15T07:31:02;7.03;;;1.73;;
78664;SDS011;67981;51.022;-2.870;2023-04-15T07:33:27;5.28;;;1.95;;
78664;SDS011;67981;51.022;-2.870;2023-04-15T07:35:53;3.70;;;1.90;;
78664;SDS011;67981;51.022;-2.870;2023-04-15T07:38:18;7.70;;;2.30;;
78664;SDS011;67981;51.022;-2.870;2023-04-15T07:40:43;3.30;;;1.60;;
78664;SDS011;67981;51.022;-2.870;2023-04-15T07:43:10;7.88;;;2.60;;
78664;SDS011;67981;51.022;-2.870;2023-04-15T07:45:37;4.75;;;1.80;;
78664;SDS011;67981;51.022;-2.870;2023-04-15T07:48:03;3.15;;;2.05;;
78664;SDS011;67981;51.022;-2.870;2023-04-15T07:50:28;5.90;;;1.90;;
78664;SDS011;67981;51.022;-2.870;2023-04-15T07:52:53;4.00;;;1.70;;
78664;SDS011;67981;51.022;-2.870;2023-04-15T07:55:19;2.88;;;1.40;;
78664;SDS011;67981;51.022;-2.870;2023-04-15T07:57:47;5.53;;;3.22;;
78664;SDS011;67981;51.022;-2.870;2023-04-15T08:00:13;5.20;;;1.98;;
78664;SDS011;67981;51.022;-2.870;2023-04-15T08:02:40;4.15;;;1.60;;
78664;SDS011;67981;51.022;-2.870;2023-04-15T08:05:06;3.50;;;1.65;;
78664;SDS011;67981;51.022;-2.870;2023-04-15T08:07:33;5.20;;;1.58;;
78664;SDS011;67981;51.022;-2.870;2023-04-15T08:09:58;1.42;;;0.98;;
78664;SDS011;67981;51.022;-2.870;2023-04-15T08:12:24;3.65;;;1.77;;
78664;SDS011;67981;51.022;-2.870;2023-04-15T08:14:49;4.45;;;1.92;;
78664;SDS011;67981;51.022;-2.870;2023-04-15T08:17:15;7.57;;;1.63;;
78664;SDS011;67981;51.022;-2.870;2023-04-15T08:19:41;3.33;;;1.40;;
78664;SDS011;67981;51.022;-2.870;2023-04-15T08:22:06;3.95;;;1.27;;
78664;SDS011;67981;51.022;-2.870;2023-04-15T08:24:32;4.13;;;1.25;;
78664;SDS011;67981;51.022;-2.870;2023-04-15T08:26:58;2.38;;;1.05;;
78664;SDS011;67981;51.022;-2.870;2023-04-15T08:29:23;2.83;;;1.17;;
78664;SDS011;67981;51.022;-2.870;2023-04-15T08:31:49;4.93;;;1.50;;
78664;SDS011;67981;51.022;-2.870;2023-04-15T08:34:14;7.13;;;1.85;;
78664;SDS011;67981;51.022;-2.870;2023-04-15T08:36:41;3.58;;;1.50;;
78664;SDS011;67981;51.022;-2.870;2023-04-15T08:39:06;3.80;;;1.38;;
78664;SDS011;67981;51.022;-2.870;2023-04-15T08:41:39;4.40;;;1.05;;
78664;SDS011;67981;51.022;-2.870;2023-04-15T08:44:10;4.72;;;1.98;;
78664;SDS011;67981;51.022;-2.870;2023-04-15T08:46:36;3.92;;;1.48;;
78664;SDS011;67981;51.022;-2.870;2023-04-15T08:49:03;7.82;;;2.20;;
78664;SDS011;67981;51.022;-2.870;2023-04-15T08:51:30;6.43;;;2.38;;
78664;SDS011;67981;51.022;-2.870;2023-04-15T08:53:56;4.53;;;1.42;;
78664;SDS011;67981;51.022;-2.870;2023-04-15T08:56:23;3.42;;;1.50;;
78664;SDS011;67981;51.022;-2.870;2023-04-15T08:58:50;5.80;;;1.63;;
78664;SDS011;67981;51.022;-2.870;2023-04-15T09:01:16;5.07;;;1.92;;
78664;SDS011;67981;51.022;-2.870;2023-04-15T09:03:42;2.55;;;1.35;;
78664;SDS011;67981;51.022;-2.870;2023-04-15T09:06:08;3.25;;;1.48;;
78664;SDS011;67981;51.022;-2.870;2023-04-15T09:08:34;3.45;;;2.25;;
78664;SDS011;67981;51.022;-2.870;2023-04-15T09:11:00;3.22;;;1.42;;
78664;SDS011;67981;51.022;-2.870;2023-04-15T09:13:27;2.70;;;1.00;;
78664;SDS011;67981;51.022;-2.870;2023-04-15T09:15:52;3.42;;;1.08;;
78664;SDS011;67981;51.022;-2.870;2023-04-15T09:18:30;6.95;;;1.80;;
78664;SDS011;67981;51.022;-2.870;2023-04-15T09:21:03;3.53;;;1.58;;
78664;SDS011;67981;51.022;-2.870;2023-04-15T09:23:36;3.78;;;1.48;;
78664;SDS011;67981;51.022;-2.870;2023-04-15T09:26:03;4.07;;;1.50;;
78664;SDS011;67981;51.022;-2.870;2023-04-15T09:28:29;3.22;;;1.55;;
78664;SDS011;67981;51.022;-2.870;2023-04-15T09:30:56;5.45;;;1.48;;
78664;SDS011;67981;51.022;-2.870;2023-04-15T09:33:22;4.30;;;1.50;;
78664;SDS011;67981;51.022;-2.870;2023-04-15T09:36:04;2.88;;;1.77;;
78664;SDS011;67981;51.022;-2.870;2023-04-15T09:38:30;3.65;;;1.60;;
78664;SDS011;67981;51.022;-2.870;2023-04-15T09:40:56;2.90;;;1.30;;
78664;SDS011;67981;51.022;-2.870;2023-04-15T09:43:22;2.90;;;1.40;;
78664;SDS011;67981;51.022;-2.870;2023-04-15T09:46:01;3.28;;;1.58;;
78664;SDS011;67981;51.022;-2.870;2023-04-15T09:48:26;3.60;;;1.50;;
78664;SDS011;67981;51.022;-2.870;2023-04-15T09:50:52;4.93;;;1.73;;
78664;SDS011;67981;51.022;-2.870;2023-04-15T09:53:22;4.53;;;1.48;;
78664;SDS011;67981;51.022;-2.870;2023-04-15T09:55:52;3.05;;;1.30;;
78664;SDS011;67981;51.022;-2.870;2023-04-15T09:58:23;3.17;;;1.42;;
78664;SDS011;67981;51.022;-2.870;2023-04-15T10:00:51;3.85;;;1.20;;
78664;SDS011;67981;51.022;-2.870;2023-04-15T10:03:18;4.35;;;1.70;;
78664;SDS011;67981;51.022;-2.870;2023-04-15T10:05:47;2.15;;;1.17;;
78664;SDS011;67981;51.022;-2.870;2023-04-15T10:08:14;3.38;;;1.33;;
78664;SDS011;67981;51.022;-2.870;2023-04-15T10:10:42;3.05;;;1.65;;
78664;SDS011;67981;51.022;-2.870;2023-04-15T10:13:08;4.82;;;2.30;;
78664;SDS011;67981;51.022;-2.870;2023-04-15T10:15:35;3.17;;;1.38;;
78664;SDS011;67981;51.022;-2.870;2023-04-15T10:18:00;2.85;;;1.23;;
78664;SDS011;67981;51.022;-2.870;2023-04-15T10:20:29;5.00;;;1.35;;
78664;SDS011;67981;51.022;-2.870;2023-04-15T10:22:55;4.50;;;1.48;;
78664;SDS011;67981;51.022;-2.870;2023-04-15T10:25:20;5.80;;;1.40;;
78664;SDS011;67981;51.022;-2.870;2023-04-15T10:27:47;3.92;;;1.42;;
78664;SDS011;67981;51.022;-2.870;2023-04-15T10:32:41;4.38;;;1.38;;
78664;SDS011;67981;51.022;-2.870;2023-04-15T10:35:07;4.63;;;1.73;;
78664;SDS011;67981;51.022;-2.870;2023-04-15T10:37:37;3.20;;;1.50;;
78664;SDS011;67981;51.022;-2.870;2023-04-15T10:42:59;4.22;;;1.60;;
78664;SDS011;67981;51.022;-2.870;2023-04-15T10:45:31;1.92;;;1.13;;
78664;SDS011;67981;51.022;-2.870;2023-04-15T10:48:00;3.35;;;1.50;;
78664;SDS011;67981;51.022;-2.870;2023-04-15T10:50:26;2.50;;;1.30;;
78664;SDS011;67981;51.022;-2.870;2023-04-15T10:52:54;2.33;;;1.40;;
78664;SDS011;67981;51.022;-2.870;2023-04-15T10:55:21;3.45;;;1.15;;
78664;SDS011;67981;51.022;-2.870;2023-04-15T10:57:54;3.00;;;2.08;;
78664;SDS011;67981;51.022;-2.870;2023-04-15T11:00:26;4.53;;;1.45;;
78664;SDS011;67981;51.022;-2.870;2023-04-15T11:05:19;3.25;;;1.40;;
78664;SDS011;67981;51.022;-2.870;2023-04-15T11:07:47;3.92;;;1.42;;
78664;SDS011;67981;51.022;-2.870;2023-04-15T11:12:58;2.88;;;0.98;;
78664;SDS011;67981;51.022;-2.870;2023-04-15T11:15:33;2.00;;;1.00;;
78664;SDS011;67981;51.022;-2.870;2023-04-15T11:20:47;2.60;;;1.30;;
78664;SDS011;67981;51.022;-2.870;2023-04-15T11:23:39;3.35;;;1.70;;
78664;SDS011;67981;51.022;-2.870;2023-04-15T11:26:11;3.67;;;1.30;;
78664;SDS011;67981;51.022;-2.870;2023-04-15T11:28:40;2.92;;;1.20;;
78664;SDS011;67981;51.022;-2.870;2023-04-15T11:31:13;2.72;;;1.35;;
78664;SDS011;67981;51.022;-2.870;2023-04-15T11:33:44;4.80;;;1.70;;
78664;SDS011;67981;51.022;-2.870;2023-04-15T11:36:22;3.35;;;1.25;;
78664;SDS011;67981;51.022;-2.870;2023-04-15T11:38:48;1.75;;;1.00;;
78664;SDS011;67981;51.022;-2.870;2023-04-15T11:41:13;2.17;;;1.08;;
78664;SDS011;67981;51.022;-2.870;2023-04-15T11:43:39;1.42;;;1.00;;
78664;SDS011;67981;51.022;-2.870;2023-04-15T11:46:05;3.80;;;1.73;;
78664;SDS011;67981;51.022;-2.870;2023-04-15T11:48:31;3.42;;;1.02;;
78664;SDS011;67981;51.022;-2.870;2023-04-15T11:50:59;3.13;;;1.67;;
78664;SDS011;67981;51.022;-2.870;2023-04-15T11:53:42;1.80;;;1.10;;
78664;SDS011;67981;51.022;-2.870;2023-04-15T11:56:09;1.83;;;1.13;;
78664;SDS011;67981;51.022;-2.870;2023-04-15T11:58:36;4.78;;;1.23;;
78664;SDS011;67981;51.022;-2.870;2023-04-15T12:01:02;2.70;;;1.17;;
78664;SDS011;67981;51.022;-2.870;2023-04-15T12:04:02;2.20;;;1.00;;
78664;SDS011;67981;51.022;-2.870;2023-04-15T12:06:21;7.03;;;3.17;;
78664;SDS011;67981;51.022;-2.870;2023-04-15T12:11:20;3.00;;;1.02;;
78664;SDS011;67981;51.022;-2.870;2023-04-15T12:13:57;2.33;;;0.93;;
78664;SDS011;67981;51.022;-2.870;2023-04-15T12:16:45;3.17;;;1.10;;
78664;SDS011;67981;51.022;-2.870;2023-04-15T12:19:13;3.45;;;1.50;;
78664;SDS011;67981;51.022;-2.870;2023-04-15T12:21:41;3.33;;;0.90;;
78664;SDS011;67981;51.022;-2.870;2023-04-15T12:24:10;2.97;;;1.15;;
78664;SDS011;67981;51.022;-2.870;2023-04-15T12:26:47;2.42;;;1.17;;
78664;SDS011;67981;51.022;-2.870;2023-04-15T12:29:24;2.67;;;1.40;;
78664;SDS011;67981;51.022;-2.870;2023-04-15T12:31:53;3.15;;;1.60;;
78664;SDS011;67981;51.022;-2.870;2023-04-15T12:34:26;4.22;;;1.65;;
78664;SDS011;67981;51.022;-2.870;2023-04-15T12:37:00;3.90;;;1.45;;
78664;SDS011;67981;51.022;-2.870;2023-04-15T12:39:27;3.50;;;1.80;;
78664;SDS011;67981;51.022;-2.870;2023-04-15T12:44:23;2.80;;;2.00;;
78664;SDS011;67981;51.022;-2.870;2023-04-15T12:46:49;3.05;;;1.35;;
78664;SDS011;67981;51.022;-2.870;2023-04-15T12:49:15;2.90;;;1.30;;
78664;SDS011;67981;51.022;-2.870;2023-04-15T12:51:43;2.55;;;1.35;;
78664;SDS011;67981;51.022;-2.870;2023-04-15T12:54:08;3.30;;;1.40;;
78664;SDS011;67981;51.022;-2.870;2023-04-15T12:56:34;2.95;;;1.23;;
78664;SDS011;67981;51.022;-2.870;2023-04-15T12:58:59;4.45;;;1.40;;
78664;SDS011;67981;51.022;-2.870;2023-04-15T13:01:24;1.73;;;1.15;;
78664;SDS011;67981;51.022;-2.870;2023-04-15T13:03:50;2.45;;;1.40;;
78664;SDS011;67981;51.022;-2.870;2023-04-15T13:06:16;2.60;;;1.70;;
78664;SDS011;67981;51.022;-2.870;2023-04-15T13:08:41;3.03;;;1.20;;
78664;SDS011;67981;51.022;-2.870;2023-04-15T13:11:07;3.42;;;1.13;;
78664;SDS011;67981;51.022;-2.870;2023-04-15T13:13:32;2.70;;;1.13;;
78664;SDS011;67981;51.022;-2.870;2023-04-15T13:15:58;2.90;;;1.30;;
78664;SDS011;67981;51.022;-2.870;2023-04-15T13:18:24;2.00;;;1.00;;
78664;SDS011;67981;51.022;-2.870;2023-04-15T13:20:49;2.20;;;1.20;;
78664;SDS011;67981;51.022;-2.870;2023-04-15T13:23:15;2.38;;;1.02;;
78664;SDS011;67981;51.022;-2.870;2023-04-15T13:25:41;2.70;;;1.13;;
78664;SDS011;67981;51.022;-2.870;2023-04-15T13:28:06;5.03;;;2.08;;
78664;SDS011;67981;51.022;-2.870;2023-04-15T13:30:31;5.43;;;2.03;;
78664;SDS011;67981;51.022;-2.870;2023-04-15T13:32:57;2.03;;;0.98;;
78664;SDS011;67981;51.022;-2.870;2023-04-15T13:35:22;1.95;;;1.17;;
78664;SDS011;67981;51.022;-2.870;2023-04-15T13:37:48;4.40;;;1.88;;
78664;SDS011;67981;51.022;-2.870;2023-04-15T13:40:13;3.25;;;1.40;;
78664;SDS011;67981;51.022;-2.870;2023-04-15T13:42:39;3.33;;;1.33;;
78664;SDS011;67981;51.022;-2.870;2023-04-15T13:45:05;2.60;;;1.50;;
78664;SDS011;67981;51.022;-2.870;2023-04-15T13:47:31;3.85;;;1.27;;
78664;SDS011;67981;51.022;-2.870;2023-04-15T13:49:56;3.17;;;1.48;;
78664;SDS011;67981;51.022;-2.870;2023-04-15T13:52:22;2.22;;;1.20;;
78664;SDS011;67981;51.022;-2.870;2023-04-15T13:54:47;2.97;;;1.40;;
78664;SDS011;67981;51.022;-2.870;2023-04-15T13:57:13;3.53;;;1.30;;
78664;SDS011;67981;51.022;-2.870;2023-04-15T13:59:39;2.47;;;1.63;;
78664;SDS011;67981;51.022;-2.870;2023-04-15T14:02:04;2.33;;;1.42;;
78664;SDS011;67981;51.022;-2.870;2023-04-15T14:04:30;2.85;;;1.48;;
78664;SDS011;67981;51.022;-2.870;2023-04-15T14:06:55;4.70;;;1.77;;
78664;SDS011;67981;51.022;-2.870;2023-04-15T14:09:22;3.50;;;1.35;;
78664;SDS011;67981;51.022;-2.870;2023-04-15T14:11:48;3.60;;;1.00;;
78664;SDS011;67981;51.022;-2.870;2023-04-15T14:14:14;3.40;;;1.33;;
78664;SDS011;67981;51.022;-2.870;2023-04-15T14:16:39;2.78;;;2.00;;
78664;SDS011;67981;51.022;-2.870;2023-04-15T14:19:05;2.20;;;1.15;;
78664;SDS011;67981;51.022;-2.870;2023-04-15T14:21:30;1.75;;;1.08;;
78664;SDS011;67981;51.022;-2.870;2023-04-15T14:23:56;2.40;;;1.20;;
78664;SDS011;67981;51.022;-2.870;2023-04-15T14:26:22;2.88;;;1.13;;
78664;SDS011;67981;51.022;-2.870;2023-04-15T14:28:47;3.58;;;1.30;;
78664;SDS011;67981;51.022;-2.870;2023-04-15T14:31:13;3.38;;;1.23;;
78664;SDS011;67981;51.022;-2.870;2023-04-15T14:33:39;2.90;;;1.17;;
78664;SDS011;67981;51.022;-2.870;2023-04-15T14:36:05;5.13;;;2.00;;
78664;SDS011;67981;51.022;-2.870;2023-04-15T14:38:32;6.35;;;1.35;;
78664;SDS011;67981;51.022;-2.870;2023-04-15T14:41:02;3.80;;;1.60;;
78664;SDS011;67981;51.022;-2.870;2023-04-15T14:43:32;2.80;;;1.15;;
78664;SDS011;67981;51.022;-2.870;2023-04-15T14:45:57;1.70;;;1.00;;
78664;SDS011;67981;51.022;-2.870;2023-04-15T14:48:23;3.58;;;1.20;;